createdAt,value
2019-04-10T00:00:06.553Z,194.20
2019-04-10T00:02:35.649Z,191.92
2019-04-10T00:05:03.851Z,194.45
2019-04-10T00:07:31.736Z,194.25
2019-04-10T00:09:59.277Z,194.50
2019-04-10T00:12:26.500Z,197.10
2019-04-10T00:14:54.847Z,195.80
2019-04-10T00:17:21.875Z,186.80
2019-04-10T00:19:48.946Z,195.18
2019-04-10T00:22:16.049Z,189.65
2019-04-10T00:24:43.991Z,193.68
2019-04-10T00:27:11.227Z,198.40
2019-04-10T00:29:40.355Z,193.37
2019-04-10T00:32:07.854Z,196.53
2019-04-10T00:34:35.814Z,194.87
2019-04-10T00:37:03.779Z,197.40
2019-04-10T00:39:32.803Z,192.72
2019-04-10T00:42:00.890Z,195.72
2019-04-10T00:44:28.119Z,195.20
2019-04-10T00:46:56.852Z,198.13
2019-04-10T00:49:24.182Z,196.60
2019-04-10T00:51:52.013Z,195.65
2019-04-10T00:54:19.653Z,196.93
2019-04-10T00:56:46.693Z,193.60
2019-04-10T00:59:13.828Z,196.98
2019-04-10T01:01:40.908Z,194.93
2019-04-10T01:04:07.947Z,193.10
2019-04-10T01:06:35.763Z,191.30
2019-04-10T01:09:06.992Z,196.90
2019-04-10T01:11:35.178Z,192.05
2019-04-10T01:14:02.354Z,190.05
2019-04-10T01:16:29.427Z,196.70
2019-04-10T01:18:56.473Z,195.12
2019-04-10T01:21:23.518Z,194.52
2019-04-10T01:23:50.573Z,194.87
2019-04-10T01:26:17.648Z,198.23
2019-04-10T01:28:45.097Z,195.38
2019-04-10T01:31:15.176Z,193.97
2019-04-10T01:33:43.041Z,194.75
2019-04-10T01:36:11.008Z,194.13
2019-04-10T01:38:39.833Z,194.00
2019-04-10T01:41:07.726Z,190.22
2019-04-10T01:43:35.166Z,195.90
2019-04-10T01:46:02.382Z,197.00
2019-04-10T01:48:30.159Z,193.02
2019-04-10T01:50:57.342Z,196.00
2019-04-10T01:53:24.375Z,195.03
2019-04-10T01:55:53.527Z,193.15
2019-04-10T01:58:23.115Z,190.38
2019-04-10T02:00:56.274Z,191.75
2019-04-10T02:03:23.312Z,189.50
2019-04-10T02:05:50.430Z,191.57
2019-04-10T02:08:18.883Z,188.82
2019-04-10T02:10:46.003Z,189.15
2019-04-10T02:13:13.062Z,187.70
2019-04-10T02:15:40.106Z,193.68
2019-04-10T02:18:06.767Z,195.68
2019-04-10T02:20:34.704Z,192.62
2019-04-10T02:23:01.838Z,194.77
2019-04-10T02:25:28.876Z,191.92
2019-04-10T02:27:56.401Z,192.35
2019-04-10T02:30:24.089Z,191.70
2019-04-10T02:32:54.556Z,193.20
2019-04-10T02:35:24.221Z,191.43
2019-04-10T02:37:55.311Z,193.30
2019-04-10T02:40:21.338Z,189.65
2019-04-10T02:42:49.319Z,194.62
2019-04-10T02:45:19.095Z,191.32
2019-04-10T02:47:47.426Z,193.75
2019-04-10T02:50:16.460Z,190.68
2019-04-10T02:52:45.953Z,188.18
2019-04-10T02:55:16.664Z,193.10
2019-04-10T02:57:51.907Z,191.12
2019-04-10T03:00:20.275Z,192.28
2019-04-10T03:02:49.933Z,188.97
2019-04-10T03:05:17.816Z,187.72
2019-04-10T03:07:46.372Z,189.18
2019-04-10T03:10:24.681Z,187.55
2019-04-10T03:12:44.257Z,187.47
2019-04-10T03:15:12.622Z,185.28
2019-04-10T03:17:40.159Z,185.25
2019-04-10T03:20:07.914Z,186.67
2019-04-10T03:22:35.128Z,184.97
2019-04-10T03:25:04.528Z,183.27
2019-04-10T03:27:31.785Z,181.90
2019-04-10T03:29:58.823Z,182.47
2019-04-10T03:32:41.660Z,182.10
2019-04-10T03:35:14.573Z,177.50
2019-04-10T03:37:42.550Z,176.95
2019-04-10T03:40:09.616Z,178.42
2019-04-10T03:42:37.106Z,176.18
2019-04-10T03:45:05.572Z,175.00
2019-04-10T03:47:33.462Z,174.87
2019-04-10T03:50:00.741Z,176.32
2019-04-10T03:52:29.405Z,174.60
2019-04-10T03:54:56.623Z,174.60
2019-04-10T03:57:24.615Z,173.43
2019-04-10T03:59:51.901Z,173.17
2019-04-10T04:02:19.848Z,173.02
2019-04-10T04:04:48.096Z,174.10
2019-04-10T04:07:15.417Z,170.50
2019-04-10T04:09:42.599Z,178.75
2019-04-10T04:12:10.522Z,168.95
2019-04-10T04:14:38.772Z,169.85
2019-04-10T04:17:06.130Z,170.60
2019-04-10T04:19:34.454Z,170.77
2019-04-10T04:22:01.738Z,171.70
2019-04-10T04:24:28.739Z,171.40
2019-04-10T04:26:55.767Z,171.05
2019-04-10T04:29:22.847Z,171.85
2019-04-10T04:31:50.698Z,171.60
2019-04-10T04:34:18.652Z,172.17
2019-04-10T04:36:48.723Z,170.28
2019-04-10T04:39:23.177Z,168.95
2019-04-10T04:41:44.407Z,170.00
2019-04-10T04:44:14.598Z,167.87
2019-04-10T04:46:42.839Z,166.75
2019-04-10T04:49:11.557Z,167.77
2019-04-10T04:51:38.853Z,166.47
2019-04-10T04:54:10.581Z,170.25
2019-04-10T04:56:42.286Z,168.37
2019-04-10T04:59:10.161Z,170.90
2019-04-10T05:01:38.399Z,165.77
2019-04-10T05:04:05.482Z,165.95
2019-04-10T05:06:34.994Z,170.72
2019-04-10T05:09:04.770Z,169.22
2019-04-10T05:11:34.254Z,169.55
2019-04-10T05:14:02.683Z,168.95
2019-04-10T05:16:31.337Z,168.35
2019-04-10T05:18:59.378Z,170.02
2019-04-10T05:21:27.369Z,165.68
2019-04-10T05:23:55.430Z,170.47
2019-04-10T05:26:22.850Z,166.95
2019-04-10T05:28:53.050Z,167.77
2019-04-10T05:31:20.139Z,170.10
2019-04-10T05:33:47.236Z,167.25
2019-04-10T05:36:15.282Z,167.35
2019-04-10T05:38:43.703Z,167.50
2019-04-10T05:41:13.265Z,166.68
2019-04-10T05:43:40.593Z,169.07
2019-04-10T05:46:07.974Z,165.43
2019-04-10T05:48:35.725Z,166.10
2019-04-10T05:51:05.705Z,167.05
2019-04-10T05:53:36.471Z,167.03
2019-04-10T05:56:03.734Z,168.80
2019-04-10T05:58:31.514Z,168.95
2019-04-10T06:01:01.044Z,166.05
2019-04-10T06:03:28.298Z,170.35
2019-04-10T06:05:56.677Z,168.65
2019-04-10T06:08:24.493Z,166.90
2019-04-10T06:10:51.941Z,168.78
2019-04-10T06:13:19.749Z,167.82
2019-04-10T06:15:47.495Z,168.30
2019-04-10T06:21:37.430Z,168.37
2019-04-10T06:24:05.832Z,170.45
2019-04-10T06:26:32.971Z,169.47
2019-04-10T06:29:02.444Z,169.45
2019-04-10T06:31:30.474Z,168.95
2019-04-10T06:33:58.412Z,170.32
2019-04-10T06:36:25.540Z,168.45
2019-04-10T06:38:55.207Z,167.47
2019-04-10T06:41:27.038Z,169.40
2019-04-10T06:43:55.042Z,164.95
2019-04-10T06:46:22.458Z,165.20
2019-04-10T06:48:50.035Z,169.17
2019-04-10T06:51:18.840Z,166.88
2019-04-10T06:53:54.042Z,168.47
2019-04-10T06:56:16.618Z,166.28
2019-04-10T06:58:44.357Z,167.98
2019-04-10T07:01:12.608Z,165.68
2019-04-10T07:03:51.816Z,167.90
2019-04-10T07:06:15.648Z,165.50
2019-04-10T07:08:38.096Z,165.70
2019-04-10T07:11:09.088Z,166.57
2019-04-10T07:13:39.511Z,167.50
2019-04-10T07:16:04.213Z,165.05
2019-04-10T07:18:32.776Z,165.10
2019-04-10T07:21:01.670Z,166.43
2019-04-10T07:23:31.904Z,165.20
2019-04-10T07:25:58.429Z,167.07
2019-04-10T07:28:25.729Z,164.77
2019-04-10T07:30:56.827Z,165.65
2019-04-10T07:33:23.076Z,166.12
2019-04-10T07:35:50.174Z,168.82
2019-04-10T07:38:26.707Z,168.10
2019-04-10T07:41:06.312Z,164.28
2019-04-10T07:43:38.668Z,168.35
2019-04-10T07:46:06.095Z,169.32
2019-04-10T07:48:33.532Z,166.00
2019-04-10T07:51:00.725Z,165.85
2019-04-10T07:53:27.758Z,169.05
2019-04-10T07:56:01.385Z,167.77
2019-04-10T07:58:23.866Z,167.72
2019-04-10T08:00:51.421Z,167.80
2019-04-10T08:03:18.904Z,167.47
2019-04-10T08:05:46.137Z,168.05
2019-04-10T08:08:17.450Z,166.25
2019-04-10T08:10:47.320Z,170.97
2019-04-10T08:13:14.539Z,169.57
2019-04-10T08:15:41.561Z,164.65
2019-04-10T08:18:08.645Z,170.12
2019-04-10T08:24:58.076Z,167.47
2019-04-10T08:27:25.620Z,172.15
2019-04-10T08:29:52.704Z,172.75
2019-04-10T08:32:19.895Z,169.90
2019-04-10T08:34:46.895Z,172.50
2019-04-10T08:37:15.096Z,171.82
2019-04-10T08:39:45.948Z,169.80
2019-04-10T08:42:11.127Z,170.15
2019-04-10T08:44:38.358Z,170.32
2019-04-10T08:47:07.054Z,172.43
2019-04-10T08:49:35.228Z,164.25
2019-04-10T08:52:02.346Z,172.55
2019-04-10T08:54:32.218Z,173.00
2019-04-10T08:56:59.796Z,172.13
2019-04-10T08:59:29.910Z,171.62
2019-04-10T09:02:04.632Z,171.60
2019-04-10T09:04:32.116Z,173.75
2019-04-10T09:07:01.373Z,170.53
2019-04-10T09:09:29.911Z,171.55
2019-04-10T09:11:58.388Z,172.43
2019-04-10T09:14:26.699Z,169.00
2019-04-10T09:16:55.221Z,170.80
2019-04-10T09:19:22.318Z,173.80
2019-04-10T09:21:49.940Z,170.10
2019-04-10T09:24:17.487Z,172.98
2019-04-10T09:26:44.658Z,172.28
2019-04-10T09:29:11.962Z,171.30
2019-04-10T09:31:40.009Z,171.40
2019-04-10T09:34:07.582Z,171.07
2019-04-10T09:36:38.175Z,171.62
2019-04-10T09:39:07.377Z,172.28
2019-04-10T09:41:36.224Z,172.25
2019-04-10T09:44:05.138Z,171.75
2019-04-10T09:46:33.206Z,169.65
2019-04-10T09:49:00.524Z,172.50
2019-04-10T09:51:27.688Z,172.68
2019-04-10T09:53:54.872Z,171.60
2019-04-10T09:56:23.086Z,171.57
2019-04-10T09:58:51.791Z,173.43
2019-04-10T10:01:19.975Z,174.80
2019-04-10T10:03:48.569Z,171.62
2019-04-10T10:06:27.327Z,170.57
2019-04-10T10:08:46.491Z,169.13
2019-04-10T10:11:13.825Z,172.07
2019-04-10T10:13:41.483Z,170.00
2019-04-10T10:16:08.617Z,169.77
2019-04-10T10:18:35.643Z,169.72
2019-04-10T10:21:04.013Z,169.60
2019-04-10T10:23:36.001Z,169.65
2019-04-10T10:26:03.787Z,170.15
2019-04-10T10:28:31.219Z,169.75
2019-04-10T10:31:00.006Z,169.43
2019-04-10T10:33:27.912Z,170.72
2019-04-10T10:35:55.659Z,172.43
2019-04-10T10:38:23.188Z,170.22
2019-04-10T10:41:01.747Z,169.40
2019-04-10T10:43:29.696Z,171.60
2019-04-10T10:45:57.346Z,170.47
2019-04-10T10:48:27.430Z,169.77
2019-04-10T10:50:58.290Z,168.68
2019-04-10T10:53:26.858Z,170.53
2019-04-10T10:55:54.070Z,171.90
2019-04-10T10:58:25.848Z,171.13
2019-04-10T11:00:53.741Z,169.77
2019-04-10T11:03:20.824Z,170.95
2019-04-10T11:05:48.713Z,172.43
2019-04-10T11:08:15.957Z,172.43
2019-04-10T11:10:47.985Z,172.40
2019-04-10T11:13:12.730Z,173.93
2019-04-10T11:15:43.691Z,171.82
2019-04-10T11:18:10.300Z,172.60
2019-04-10T11:20:41.792Z,173.55
2019-04-10T11:23:09.534Z,174.68
2019-04-10T11:25:40.397Z,172.10
2019-04-10T11:28:07.810Z,173.10
2019-04-10T11:30:36.166Z,173.87
2019-04-10T11:33:04.079Z,172.98
2019-04-10T11:35:31.963Z,171.25
2019-04-10T11:38:00.998Z,171.13
2019-04-10T11:40:31.646Z,171.77
2019-04-10T11:43:00.691Z,174.27
2019-04-10T11:45:29.771Z,174.18
2019-04-10T11:48:07.788Z,172.32
2019-04-10T11:50:38.560Z,175.25
2019-04-10T11:53:07.704Z,176.07
2019-04-10T11:55:43.668Z,173.97
2019-04-10T11:58:05.665Z,175.82
2019-04-10T12:00:47.292Z,176.95
2019-04-10T12:03:10.545Z,173.15
2019-04-10T12:05:41.402Z,174.60
2019-04-10T12:08:32.335Z,175.05
2019-04-10T12:13:16.469Z,173.55
2019-04-10T12:15:43.031Z,173.45
2019-04-10T12:18:12.109Z,173.43
2019-04-10T12:20:39.204Z,170.60
2019-04-10T12:23:06.272Z,172.57
2019-04-10T12:25:36.643Z,172.10
2019-04-10T12:28:05.472Z,172.93
2019-04-10T12:30:39.536Z,172.90
2019-04-10T12:33:07.566Z,172.25
2019-04-10T12:35:36.735Z,173.60
2019-04-10T12:38:08.099Z,171.47
2019-04-10T12:40:35.747Z,172.07
2019-04-10T12:43:04.926Z,170.30
2019-04-10T12:45:32.652Z,170.62
2019-04-10T12:47:59.819Z,171.68
2019-04-10T12:50:27.208Z,170.20
2019-04-10T12:52:54.719Z,168.75
2019-04-10T12:55:23.919Z,172.07
2019-04-10T12:57:51.300Z,170.87
2019-04-10T13:00:23.628Z,172.05
2019-04-10T13:02:52.461Z,171.72
2019-04-10T13:05:20.963Z,172.30
2019-04-10T13:07:48.357Z,170.43
2019-04-10T13:10:15.773Z,171.05
2019-04-10T13:12:45.308Z,170.80
2019-04-10T13:15:15.104Z,173.02
2019-04-10T13:17:42.762Z,170.12
2019-04-10T13:20:12.042Z,170.53
2019-04-10T13:22:40.148Z,169.02
2019-04-10T13:25:10.330Z,170.72
2019-04-10T13:27:38.990Z,169.47
2019-04-10T13:30:12.652Z,171.32
2019-04-10T13:32:40.269Z,172.07
2019-04-10T13:35:08.157Z,168.62
2019-04-10T13:37:35.885Z,169.65
2019-04-10T13:40:05.612Z,170.55
2019-04-10T13:42:33.514Z,170.92
2019-04-10T13:45:00.954Z,171.22
2019-04-10T13:47:29.154Z,168.87
2019-04-10T13:49:58.001Z,170.12
2019-04-10T13:52:25.940Z,170.65
2019-04-10T13:54:54.769Z,170.43
2019-04-10T13:57:25.107Z,170.43
2019-04-10T13:59:53.265Z,169.75
2019-04-10T14:02:32.261Z,171.37
2019-04-10T14:04:59.754Z,169.90
2019-04-10T14:07:26.939Z,170.12
2019-04-10T14:09:54.433Z,169.37
2019-04-10T14:12:22.823Z,168.70
2019-04-10T14:14:51.022Z,170.72
2019-04-10T14:17:21.530Z,168.82
2019-04-10T14:19:49.798Z,168.13
2019-04-10T14:22:19.553Z,170.92
2019-04-10T14:24:49.009Z,168.70
2019-04-10T14:27:22.880Z,170.43
2019-04-10T14:29:53.072Z,171.25
2019-04-10T14:32:29.216Z,169.62
2019-04-10T14:34:58.833Z,168.28
2019-04-10T14:37:27.395Z,167.45
2019-04-10T14:39:55.768Z,167.85
2019-04-10T14:42:24.520Z,169.15
2019-04-10T14:44:53.091Z,167.77
2019-04-10T14:47:21.278Z,167.93
2019-04-10T14:49:49.322Z,170.02
2019-04-10T14:52:16.898Z,169.57
2019-04-10T14:54:44.085Z,169.25
2019-04-10T14:57:13.325Z,170.87
2019-04-10T15:06:45.903Z,168.52
2019-04-10T15:09:25.341Z,168.82
2019-04-10T15:11:49.027Z,167.40
2019-04-10T15:14:16.342Z,167.03
2019-04-10T15:16:52.977Z,169.50
2019-04-10T15:19:14.645Z,167.25
2019-04-10T15:21:42.976Z,170.32
2019-04-10T15:24:11.066Z,170.12
2019-04-10T15:26:40.972Z,170.17
2019-04-10T15:29:08.375Z,172.65
2019-04-10T15:31:37.564Z,171.55
2019-04-10T15:34:07.978Z,172.72
2019-04-10T15:36:35.923Z,171.62
2019-04-10T15:39:06.630Z,170.12
2019-04-10T15:41:34.920Z,169.85
2019-04-10T15:44:02.167Z,170.53
2019-04-10T15:46:30.679Z,166.62
2019-04-10T15:49:09.189Z,169.20
2019-04-10T15:51:53.244Z,166.30
2019-04-10T15:54:23.667Z,167.32
2019-04-10T15:56:52.106Z,165.12
2019-04-10T15:59:19.877Z,167.60
2019-04-10T16:01:50.985Z,168.28
2019-04-10T16:04:19.802Z,166.92
2019-04-10T16:06:47.978Z,169.10
2019-04-10T16:09:17.676Z,167.57
2019-04-10T16:11:52.288Z,170.32
2019-04-10T16:14:23.232Z,169.35
2019-04-10T16:17:09.428Z,167.43
2019-04-10T16:19:45.658Z,167.40
2019-04-10T16:22:33.345Z,168.17
2019-04-10T16:25:03.370Z,165.43
2019-04-10T16:27:30.754Z,166.32
2019-04-10T16:30:02.040Z,166.15
2019-04-10T16:32:32.853Z,164.88
2019-04-10T16:35:01.196Z,165.43
2019-04-10T16:37:31.341Z,166.22
2019-04-10T16:40:03.966Z,165.28
2019-04-10T16:42:30.730Z,167.15
2019-04-10T16:44:57.941Z,166.15
2019-04-10T16:47:26.044Z,166.15
2019-04-10T16:49:53.346Z,163.10
2019-04-10T16:52:20.936Z,165.45
2019-04-10T16:54:49.091Z,165.50
2019-04-10T16:57:16.462Z,166.92
2019-04-10T16:59:43.848Z,167.72
2019-04-10T17:02:12.859Z,168.17
2019-04-10T17:04:40.233Z,166.18
2019-04-10T17:07:08.405Z,168.13
2019-04-10T17:09:36.560Z,168.07
2019-04-10T17:12:05.902Z,167.93
2019-04-10T17:14:35.573Z,167.68
2019-04-10T17:17:06.855Z,168.70
2019-04-10T17:19:46.616Z,163.62
2019-04-10T17:22:06.878Z,165.28
2019-04-10T17:24:35.497Z,163.18
2019-04-10T17:27:05.048Z,164.62
2019-04-10T17:29:34.973Z,164.88
2019-04-10T17:32:04.637Z,163.92
2019-04-10T17:34:38.934Z,167.53
2019-04-10T17:37:07.545Z,164.45
2019-04-10T17:39:40.122Z,164.32
2019-04-10T17:42:08.116Z,162.85
2019-04-10T17:44:38.148Z,165.82
2019-04-10T17:47:09.795Z,165.55
2019-04-10T17:49:36.722Z,166.20
2019-04-10T17:52:04.214Z,163.40
2019-04-10T17:54:34.656Z,164.35
2019-04-10T17:57:02.451Z,164.30
2019-04-10T17:59:30.222Z,163.20
2019-04-10T18:02:01.197Z,163.72
2019-04-10T18:04:29.713Z,161.37
2019-04-10T18:06:57.506Z,162.30
2019-04-10T18:09:26.286Z,163.03
2019-04-10T18:11:54.222Z,163.30
2019-04-10T18:14:21.463Z,162.40
2019-04-10T18:16:49.573Z,165.37
2019-04-10T18:19:17.162Z,163.87
2019-04-10T18:21:45.854Z,164.93
2019-04-10T18:24:13.701Z,161.03
2019-04-10T18:26:41.821Z,163.97
2019-04-10T18:29:10.186Z,163.65
2019-04-10T18:31:39.142Z,161.43
2019-04-10T18:34:09.636Z,162.65
2019-04-10T18:36:36.310Z,163.05
2019-04-10T18:39:08.391Z,161.55
2019-04-10T18:41:36.647Z,161.88
2019-04-10T18:44:04.745Z,160.57
2019-04-10T18:46:35.589Z,161.75
2019-04-10T18:49:03.895Z,160.50
2019-04-10T18:51:34.086Z,160.80
2019-04-10T18:54:02.395Z,161.73
2019-04-10T18:56:29.559Z,160.60
2019-04-10T18:59:20.572Z,163.05
2019-04-10T19:02:03.367Z,160.85
2019-04-10T19:04:37.491Z,159.45
2019-04-10T19:07:13.189Z,163.00
2019-04-10T19:09:52.592Z,163.75
2019-04-10T19:12:22.150Z,159.75
2019-04-10T19:14:51.753Z,159.12
2019-04-10T19:17:21.052Z,162.62
2019-04-10T19:19:54.788Z,161.55
2019-04-10T19:22:26.266Z,160.43
2019-04-10T19:24:58.345Z,160.15
2019-04-10T19:27:31.939Z,158.18
2019-04-10T19:29:59.208Z,161.82
2019-04-10T19:32:35.444Z,159.63
2019-04-10T19:35:04.675Z,158.55
2019-04-10T19:37:34.563Z,158.68
2019-04-10T19:40:02.974Z,159.12
2019-04-10T19:42:31.176Z,158.47
2019-04-10T19:45:01.533Z,158.25
2019-04-10T19:47:32.579Z,159.00
2019-04-10T19:50:01.293Z,159.40
2019-04-10T19:52:31.279Z,157.22
2019-04-10T19:55:01.090Z,158.32
2019-04-10T19:57:29.057Z,157.97
2019-04-10T19:59:57.871Z,157.37
2019-04-10T20:02:25.137Z,158.00
2019-04-10T20:04:55.143Z,156.18
2019-04-10T20:07:22.851Z,159.07
2019-04-10T20:09:50.387Z,159.35
2019-04-10T20:12:20.277Z,158.37
2019-04-10T20:14:51.020Z,157.82
2019-04-10T20:17:24.371Z,157.90
2019-04-10T20:19:56.465Z,156.63
2019-04-10T20:22:23.084Z,156.07
2019-04-10T20:24:51.863Z,159.25
2019-04-10T20:27:20.233Z,157.57
2019-04-10T20:29:47.692Z,157.18
2019-04-10T20:32:15.416Z,158.52
2019-04-10T20:34:43.829Z,154.72
2019-04-10T20:37:13.088Z,155.03
2019-04-10T20:39:41.339Z,155.27
2019-04-10T20:42:08.391Z,156.93
2019-04-10T20:44:36.584Z,156.30
2019-04-10T20:47:04.612Z,155.82
2019-04-10T20:49:36.456Z,156.60
2019-04-10T20:52:06.416Z,156.47
2019-04-10T20:54:35.026Z,154.87
2019-04-10T20:57:03.353Z,153.78
2019-04-10T20:59:31.356Z,154.45
2019-04-10T21:01:58.469Z,157.10
2019-04-10T21:04:27.638Z,154.85
2019-04-10T21:06:54.949Z,157.03
2019-04-10T21:09:22.203Z,153.38
2019-04-10T21:12:00.949Z,157.43
2019-04-10T21:14:21.110Z,158.87
2019-04-10T21:16:48.829Z,154.15
2019-04-10T21:19:18.615Z,154.53
2019-04-10T21:21:46.828Z,153.25
2019-04-10T21:24:14.035Z,153.15
2019-04-10T21:26:41.710Z,154.90
2019-04-10T21:29:13.417Z,154.70
2019-04-10T21:32:08.010Z,153.97
2019-04-10T21:34:42.625Z,154.97
2019-04-10T21:37:10.270Z,155.87
2019-04-10T21:39:38.135Z,153.60
2019-04-10T21:42:14.818Z,156.40
2019-04-10T21:44:35.151Z,153.68
2019-04-10T21:47:03.961Z,154.35
2019-04-10T21:49:32.374Z,156.18
2019-04-10T21:51:59.965Z,156.63
2019-04-10T21:54:27.266Z,154.45
2019-04-10T21:56:55.499Z,155.12
2019-04-10T21:59:22.769Z,155.57
2019-04-10T22:01:52.807Z,154.50
2019-04-10T22:04:21.000Z,155.37
2019-04-10T22:07:07.828Z,155.93
2019-04-10T22:09:57.258Z,155.40
2019-04-10T22:12:31.748Z,155.78
2019-04-10T22:14:58.140Z,153.93
2019-04-10T22:17:25.204Z,155.57
2019-04-10T22:19:53.399Z,155.25
2019-04-10T22:22:20.434Z,156.52
2019-04-10T22:24:48.613Z,155.10
2019-04-10T22:27:16.933Z,155.05
2019-04-10T22:29:44.770Z,156.18
2019-04-10T22:32:14.446Z,157.25
2019-04-10T22:34:42.659Z,158.85
2019-04-10T22:37:09.996Z,158.27
2019-04-10T22:39:37.067Z,158.05
2019-04-10T22:42:05.349Z,157.88
2019-04-10T22:44:39.014Z,159.72
2019-04-10T22:47:01.599Z,156.18
2019-04-10T22:49:28.826Z,157.47
2019-04-10T22:51:58.366Z,155.78
2019-04-10T22:54:26.255Z,156.28
2019-04-10T22:56:54.440Z,155.30
2019-04-10T22:59:22.129Z,155.35
2019-04-10T23:02:00.453Z,156.40
2019-04-10T23:04:18.556Z,155.25
2019-04-10T23:06:45.714Z,158.12
2019-04-10T23:09:13.844Z,157.27
2019-04-10T23:11:43.482Z,156.00
2019-04-10T23:14:10.267Z,155.95
2019-04-10T23:16:38.453Z,155.75
2019-04-10T23:19:05.761Z,157.40
2019-04-10T23:21:32.876Z,156.07
2019-04-10T23:24:00.119Z,156.80
2019-04-10T23:26:27.181Z,158.15
2019-04-10T23:28:54.355Z,156.97
2019-04-10T23:31:21.657Z,157.67
2019-04-10T23:33:50.341Z,156.50
2019-04-10T23:36:18.144Z,157.45
2019-04-10T23:38:45.873Z,159.50
2019-04-10T23:41:13.713Z,157.70
2019-04-10T23:43:41.851Z,157.30
2019-04-10T23:46:11.239Z,155.00
2019-04-10T23:48:39.160Z,155.22
2019-04-10T23:51:07.083Z,156.80
2019-04-10T23:53:34.472Z,157.93
2019-04-10T23:56:02.125Z,156.45
2019-04-10T23:58:29.756Z,157.50
